KAUS - Austin/Bergstrom Int, TX, US

Issued at 2320 UTC 14 Aug 2020
Updated at 0212 UTC 15 Aug 2020
Potential Impact None Slight Moderate High
Time0153Z 15/03Z 15/04Z 15/05Z 15/06Z 15/07Z 15/08Z 15/09Z 15/10Z 15/11Z 15/12Z 15/13Z 15/14Z 15/15Z>>
Type OBS PRVL PRVL PRVL PRVL PRVL PRVL PRVL PRVL PRVL PRVL PRVL PRVL PRVL
VIS 10 >6 >6 >6 >6 >6 >6 >6 >6 >6 >6 >6 >6 >6
CIG -- -- -- -- -- -- -- -- -- -- -- -- -- --
Cover FEW SKC SKC SKC SKC SKC SKC SCT SCT SCT SCT SCT SCT SCT
FltCat VFR VFR VFR VFR VFR VFR VFR VFR VFR VFR VFR VFR VFR VFR
WX -- -- -- -- -- -- -- -- -- -- -- -- -- --
WDir 170 160 160 160 160 160 160 190 190 190 190 190 190 220
WSpd 6 11 11 11 11 11 11 6 6 6 6 6 6 12
WGst -- -- -- -- -- -- -- -- -- -- -- -- -- --
Raw TAF
KAUS 142320Z 1500/1606 16011KT P6SM SKC
  FM150900 19006KT P6SM SCT015
  FM151500 22012KT P6SM SCT015


Raw METAR
KAUS 150153Z 17006KT 10SM FEW250 33/17 A2984 RMK AO2 SLP090 T03280172
KAUS 150053Z 16008KT 10SM CLR 37/17 A2982 RMK AO2 SLP084 T03720167
KAUS 142353Z 17010KT 10SM CLR 39/16 A2981 RMK AO2 SLP078 T03890161 10406 20361 56016

METAR Board
Radar Display
Forecast Discussion
For situational awareness. Not to be used for flight planning purposes.